createdAt,value
2023-10-03T00:02:55.398Z,19.05
2023-10-03T00:06:58.376Z,23.58
2023-10-03T00:10:59.902Z,19.85
2023-10-03T00:15:01.407Z,25.13
2023-10-03T00:19:03.154Z,25.65
2023-10-03T00:23:06.327Z,24.17
2023-10-03T00:27:07.849Z,23.75
2023-10-03T00:31:09.446Z,26.70
2023-10-03T00:35:11.132Z,23.60
2023-10-03T00:39:13.975Z,23.15
2023-10-03T00:43:15.535Z,18.58
2023-10-03T00:47:17.099Z,19.65
2023-10-03T00:51:18.850Z,23.98
2023-10-03T00:55:22.512Z,19.45
2023-10-03T00:59:24.346Z,22.05
2023-10-03T01:03:27.364Z,21.80
2023-10-03T01:11:31.764Z,19.83
2023-10-03T01:15:33.312Z,25.15
2023-10-03T01:19:34.833Z,23.63
2023-10-03T01:23:37.802Z,17.30
2023-10-03T01:27:39.511Z,16.27
2023-10-03T01:31:41.338Z,20.40
2023-10-03T01:35:42.863Z,21.58
2023-10-03T01:39:45.759Z,17.10
2023-10-03T01:43:47.260Z,19.00
2023-10-03T01:47:49.242Z,19.98
2023-10-03T01:51:50.779Z,17.50
2023-10-03T01:55:53.666Z,22.35
2023-10-03T01:59:55.279Z,25.17
2023-10-03T02:03:56.960Z,22.85
2023-10-03T02:07:58.623Z,20.95
2023-10-03T02:12:01.488Z,18.08
2023-10-03T02:16:03.141Z,21.50
2023-10-03T02:20:05.616Z,20.05
2023-10-03T02:24:07.995Z,20.77
2023-10-03T02:28:10.928Z,20.10
2023-10-03T02:32:12.476Z,19.98
2023-10-03T02:36:13.992Z,17.30
2023-10-03T02:40:15.682Z,24.90
2023-10-03T02:44:18.652Z,20.02
2023-10-03T02:48:20.486Z,19.58
2023-10-03T02:52:22.119Z,21.55
2023-10-03T02:56:23.815Z,24.60
2023-10-03T03:00:26.877Z,20.25
2023-10-03T03:04:28.520Z,27.15
2023-10-03T03:08:30.261Z,22.88
2023-10-03T03:12:31.874Z,23.08
2023-10-03T03:16:34.726Z,19.25
2023-10-03T03:20:36.286Z,24.25
2023-10-03T03:24:37.937Z,18.85
2023-10-03T03:28:40.312Z,17.20
2023-10-03T03:32:43.354Z,21.30
2023-10-03T03:40:46.502Z,22.60
2023-10-03T03:44:48.073Z,19.95
2023-10-03T03:48:50.936Z,18.67
2023-10-03T03:52:52.461Z,23.67
2023-10-03T03:56:54.020Z,19.92
2023-10-03T04:00:55.619Z,20.42
2023-10-03T04:04:58.663Z,21.98
2023-10-03T04:09:07.108Z,25.23
2023-10-03T04:13:09.783Z,23.75
2023-10-03T04:17:11.298Z,21.42
2023-10-03T04:21:14.198Z,23.85
2023-10-03T04:25:15.990Z,27.48
2023-10-03T04:29:17.499Z,23.92
2023-10-03T04:33:19.204Z,25.60
2023-10-03T04:37:22.280Z,26.33
2023-10-03T04:41:23.841Z,22.90
2023-10-03T04:45:25.837Z,20.33
2023-10-03T04:49:27.368Z,23.98
2023-10-03T04:53:30.824Z,25.73
2023-10-03T04:57:32.365Z,23.83
2023-10-03T05:01:33.888Z,27.38
2023-10-03T05:05:35.574Z,20.73
2023-10-03T05:09:38.481Z,18.38
2023-10-03T05:13:40.192Z,25.27
2023-10-03T05:17:42.083Z,27.98
2023-10-03T05:21:43.657Z,23.05
2023-10-03T05:25:46.520Z,24.67
2023-10-03T05:29:48.056Z,26.15
2023-10-03T05:33:49.699Z,25.60
2023-10-03T05:37:51.272Z,40.22
2023-10-03T05:41:54.217Z,34.70
2023-10-03T05:45:55.758Z,52.45
2023-10-03T05:49:57.377Z,37.50
2023-10-03T05:53:58.948Z,35.63
2023-10-03T05:58:03.649Z,30.67
2023-10-03T06:02:05.574Z,31.17
2023-10-03T06:06:07.165Z,33.67
2023-10-03T06:10:10.123Z,33.85
2023-10-03T06:14:13.103Z,29.52
2023-10-03T06:18:14.707Z,31.73
2023-10-03T06:22:16.246Z,27.20
2023-10-03T06:26:17.796Z,27.90
2023-10-03T06:30:20.751Z,33.70
2023-10-03T06:34:22.274Z,29.10
2023-10-03T06:38:23.890Z,25.60
2023-10-03T06:42:25.504Z,28.48
2023-10-03T06:46:28.419Z,39.00
2023-10-03T06:50:30.097Z,34.13
2023-10-03T06:54:31.798Z,29.15
2023-10-03T06:58:33.426Z,26.70
2023-10-03T07:02:36.385Z,25.00
2023-10-03T07:06:38.100Z,24.05
2023-10-03T07:10:39.753Z,29.70
2023-10-03T07:14:41.412Z,25.42
2023-10-03T07:18:44.450Z,26.10
2023-10-03T07:22:46.085Z,28.88
2023-10-03T07:26:47.682Z,31.17
2023-10-03T07:30:49.299Z,34.67
2023-10-03T07:34:52.209Z,29.20
2023-10-03T07:42:55.183Z,29.92
2023-10-03T07:46:56.896Z,27.17
2023-10-03T07:50:59.858Z,31.17
2023-10-03T07:59:05.227Z,31.88
2023-10-03T08:03:07.733Z,29.63
2023-10-03T08:07:10.758Z,36.08
2023-10-03T08:15:14.585Z,33.60
2023-10-03T08:19:17.150Z,27.48
2023-10-03T08:23:20.048Z,31.20
2023-10-03T08:27:21.563Z,33.53
2023-10-03T08:31:23.103Z,32.05
2023-10-03T08:35:24.971Z,30.90
2023-10-03T08:39:28.339Z,34.92
2023-10-03T08:43:30.480Z,29.27
2023-10-03T08:47:32.362Z,31.50
2023-10-03T08:51:34.141Z,31.65
2023-10-03T08:55:37.040Z,32.85
2023-10-03T09:03:40.460Z,29.63
2023-10-03T09:07:45.260Z,32.10
2023-10-03T09:11:48.200Z,27.85
2023-10-03T09:15:50.601Z,31.88
2023-10-03T09:19:52.142Z,27.10
2023-10-03T09:23:54.945Z,26.50
2023-10-03T09:32:06.899Z,24.08
2023-10-03T09:36:09.556Z,31.27
2023-10-03T09:40:11.808Z,27.27
2023-10-03T09:44:15.903Z,31.03
2023-10-03T09:48:18.068Z,26.35
2023-10-03T09:52:19.730Z,27.37
2023-10-03T09:56:21.552Z,29.35
2023-10-03T10:00:25.189Z,29.33
2023-10-03T10:04:28.747Z,26.90
2023-10-03T10:08:41.213Z,25.88
2023-10-03T10:13:07.279Z,29.30
2023-10-03T10:17:19.104Z,26.20
2023-10-03T10:21:24.203Z,24.85
2023-10-03T10:25:25.911Z,24.38
2023-10-03T10:29:27.540Z,23.27
2023-10-03T10:33:30.536Z,28.25
2023-10-03T10:37:49.898Z,24.77
2023-10-03T10:42:09.105Z,28.65
2023-10-03T10:46:32.539Z,29.25
2023-10-03T10:51:08.778Z,24.48
2023-10-03T10:55:11.076Z,27.77
2023-10-03T10:59:12.607Z,24.63
2023-10-03T11:03:21.275Z,27.38
2023-10-03T11:07:25.381Z,25.67
2023-10-03T11:11:36.641Z,28.90
2023-10-03T11:15:38.216Z,24.40
2023-10-03T11:19:39.897Z,25.77
2023-10-03T11:24:09.809Z,26.17
2023-10-03T11:28:11.385Z,27.50
2023-10-03T11:32:21.295Z,26.15
2023-10-03T11:36:22.815Z,21.55
2023-10-03T11:40:30.175Z,22.20
2023-10-03T11:44:31.984Z,29.27
2023-10-03T11:48:33.582Z,19.55
2023-10-03T11:52:35.554Z,20.88
2023-10-03T11:56:43.681Z,26.27
2023-10-03T12:00:45.714Z,22.90
2023-10-03T12:04:47.820Z,23.15
2023-10-03T12:08:49.406Z,23.73
2023-10-03T12:12:53.118Z,20.23
2023-10-03T12:16:54.758Z,21.15
2023-10-03T12:20:56.276Z,18.38
2023-10-03T12:24:57.917Z,25.98
2023-10-03T12:29:00.856Z,21.45
2023-10-03T12:33:02.673Z,18.52
2023-10-03T12:37:04.357Z,19.13
2023-10-03T12:41:05.908Z,20.50
2023-10-03T12:45:10.298Z,23.23
2023-10-03T12:49:11.833Z,19.13
2023-10-03T12:53:13.349Z,20.10
2023-10-03T12:57:15.101Z,18.35
2023-10-03T13:01:18.188Z,15.80
2023-10-03T13:05:20.441Z,15.20
2023-10-03T13:09:22.033Z,15.48
2023-10-03T13:13:23.558Z,13.98
2023-10-03T13:17:26.471Z,16.40
2023-10-03T13:21:28.125Z,13.88
2023-10-03T13:25:29.650Z,17.05
2023-10-03T13:29:31.181Z,16.23
2023-10-03T13:33:34.118Z,14.55
2023-10-03T13:37:35.712Z,16.27
2023-10-03T13:41:37.428Z,14.77
2023-10-03T13:45:38.969Z,15.07
2023-10-03T13:49:41.870Z,17.85
2023-10-03T13:53:43.415Z,17.30
2023-10-03T13:57:44.937Z,13.98
2023-10-03T14:01:46.572Z,15.52
2023-10-03T14:05:49.644Z,14.32
2023-10-03T14:09:51.240Z,12.68
2023-10-03T14:13:54.142Z,11.07
2023-10-03T14:17:55.805Z,11.52
2023-10-03T14:21:58.478Z,15.13
2023-10-03T14:30:03.663Z,15.02
2023-10-03T14:34:05.480Z,14.07
2023-10-03T14:38:07.043Z,15.17
2023-10-03T14:42:09.967Z,12.57
2023-10-03T14:46:11.718Z,11.80
2023-10-03T14:50:13.346Z,14.93
2023-10-03T14:54:16.362Z,18.10
2023-10-03T14:58:19.320Z,19.10
2023-10-03T15:02:20.875Z,12.95
2023-10-03T15:06:22.535Z,11.05
2023-10-03T15:10:24.081Z,13.13
2023-10-03T15:14:27.537Z,8.77
2023-10-03T15:18:30.910Z,16.52
2023-10-03T15:22:32.592Z,12.80
2023-10-03T15:30:44.019Z,16.35
2023-10-03T15:34:45.573Z,12.05
2023-10-03T15:38:47.125Z,12.23
2023-10-03T15:42:48.644Z,15.38
2023-10-03T15:46:51.539Z,17.20
2023-10-03T15:50:53.063Z,14.63
2023-10-03T15:54:54.870Z,14.82
2023-10-03T15:58:56.394Z,11.37
2023-10-03T16:03:00.179Z,11.57
2023-10-03T16:07:01.745Z,14.10
2023-10-03T16:11:03.906Z,13.68
2023-10-03T16:15:06.500Z,15.90
2023-10-03T16:23:10.997Z,14.10
2023-10-03T16:27:13.035Z,16.85
2023-10-03T16:31:15.042Z,15.40
2023-10-03T16:35:18.185Z,21.95
2023-10-03T16:39:19.899Z,36.72
2023-10-03T16:43:21.642Z,14.60
2023-10-03T16:47:23.310Z,14.30
2023-10-03T16:51:26.247Z,16.48
2023-10-03T16:55:27.893Z,12.52
2023-10-03T16:59:29.548Z,12.07
2023-10-03T17:03:31.354Z,12.25
2023-10-03T17:07:34.544Z,15.93
2023-10-03T17:11:36.174Z,14.43
2023-10-03T17:15:37.695Z,12.25
2023-10-03T17:19:39.234Z,14.20
2023-10-03T17:23:42.177Z,13.88
2023-10-03T17:27:43.929Z,12.05
2023-10-03T17:31:45.455Z,12.38
2023-10-03T17:35:47.018Z,13.38
2023-10-03T17:39:50.050Z,12.45
2023-10-03T17:43:51.768Z,19.30
2023-10-03T17:47:53.622Z,9.60
2023-10-03T17:51:55.337Z,15.70
2023-10-03T17:55:58.234Z,8.55
2023-10-03T18:00:06.662Z,22.73
2023-10-03T18:04:09.022Z,33.10
2023-10-03T18:08:10.889Z,8.82
2023-10-03T18:12:13.906Z,8.50
2023-10-03T18:16:15.530Z,5.85
2023-10-03T18:20:18.281Z,5.90
2023-10-03T18:24:20.027Z,4.53
2023-10-03T18:28:22.942Z,4.65
2023-10-03T18:36:26.095Z,4.55
2023-10-03T18:40:27.658Z,4.18
2023-10-03T18:44:30.567Z,4.00
2023-10-03T18:48:32.155Z,6.05
2023-10-03T18:52:35.500Z,7.03
2023-10-03T18:56:37.096Z,5.70
2023-10-03T19:00:40.053Z,3.35
2023-10-03T19:04:41.635Z,1.85
2023-10-03T19:08:43.212Z,4.00
2023-10-03T19:12:44.744Z,7.50
2023-10-03T19:16:47.818Z,3.08
2023-10-03T19:24:51.047Z,2.92
2023-10-03T19:28:52.658Z,4.18
2023-10-03T19:32:55.650Z,2.42
2023-10-03T19:40:58.759Z,2.67
2023-10-03T19:45:00.554Z,3.80
2023-10-03T19:49:03.665Z,3.85
2023-10-03T19:53:05.472Z,4.45
2023-10-03T19:57:07.059Z,4.13
2023-10-03T20:01:08.665Z,4.07
2023-10-03T20:05:12.041Z,3.67
2023-10-03T20:09:13.591Z,3.42
2023-10-03T20:13:15.168Z,5.50
2023-10-03T20:17:16.757Z,2.13
2023-10-03T20:21:19.817Z,4.53
2023-10-03T20:29:22.746Z,4.53
2023-10-03T20:33:24.541Z,3.78
2023-10-03T20:37:27.516Z,4.13
2023-10-03T20:41:29.039Z,4.75
2023-10-03T20:45:30.571Z,4.15
2023-10-03T20:49:32.117Z,4.72
2023-10-03T20:53:35.197Z,3.35
2023-10-03T21:01:38.210Z,5.45
2023-10-03T21:05:40.678Z,5.22
2023-10-03T21:09:43.730Z,4.20
2023-10-03T21:13:45.250Z,3.85
2023-10-03T21:17:46.823Z,4.68
2023-10-03T21:21:48.511Z,4.38
2023-10-03T21:25:51.378Z,7.07
2023-10-03T21:29:52.995Z,5.78
2023-10-03T21:33:54.562Z,5.85
2023-10-03T21:37:56.441Z,5.50
2023-10-03T21:41:59.339Z,4.88
2023-10-03T21:46:01.029Z,6.47
2023-10-03T21:50:02.612Z,3.88
2023-10-03T21:54:04.457Z,4.93
2023-10-03T21:58:07.340Z,5.82
2023-10-03T22:02:08.885Z,10.30
2023-10-03T22:06:10.656Z,5.28
2023-10-03T22:10:12.196Z,6.53
2023-10-03T22:14:15.709Z,5.07
2023-10-03T22:18:17.420Z,6.22
2023-10-03T22:22:19.057Z,4.35
2023-10-03T22:26:20.803Z,6.15
2023-10-03T22:30:23.652Z,3.63
2023-10-03T22:34:25.160Z,4.00
2023-10-03T22:38:26.662Z,5.20
2023-10-03T22:42:28.262Z,5.35
2023-10-03T22:46:31.319Z,4.95
2023-10-03T22:54:34.321Z,4.35
2023-10-03T22:58:35.858Z,4.15
2023-10-03T23:02:38.745Z,6.88
2023-10-03T23:06:40.313Z,3.63
2023-10-03T23:10:41.885Z,5.53
2023-10-03T23:14:43.430Z,4.18
2023-10-03T23:18:46.350Z,4.10
2023-10-03T23:22:47.956Z,4.85
2023-10-03T23:26:49.488Z,5.25
2023-10-03T23:30:51.023Z,5.07
2023-10-03T23:34:53.900Z,5.88
2023-10-03T23:38:55.469Z,5.40
2023-10-03T23:42:57.014Z,7.10
2023-10-03T23:46:58.534Z,4.57
2023-10-03T23:51:01.430Z,6.00
2023-10-03T23:55:03.530Z,3.50
2023-10-03T23:59:05.454Z,4.55
